This is the latest recevied weather packets stored in our database for station/object KC2G. If no packets are shown the sender has not sent any weather packets the latest 10 day(s).
| Time | Temp. | Humidity | Pressure | Rain* | Wind** | Luminosity | Snow |
|---|---|---|---|---|---|---|---|
| 1777572055 | 13.89° C | 83% | 1007.4 hPa | 0 mm | 0 m/s | - | - |
| 1777571154 | 14.44° C | 80% | 1007.4 hPa | 0 mm | 0.45 m/s, 234° | - | - |
| 1777570255 | 14.44° C | 81% | 1007.5 hPa | 0 mm | 0.89 m/s, 336° | - | - |
| 1777569355 | 13.33° C | 88% | 1007.7 hPa | 0 mm | 0.45 m/s, 56° | - | - |
| 1777568455 | 12.22° C | 93% | 1007.8 hPa | 0 mm | 0 m/s | - | - |
| 1777567555 | 12.22° C | 96% | 1008.1 hPa | 0 mm | 0 m/s | - | - |
| 1777566656 | 11.67° C | 99% | 1008.2 hPa | 0 mm | 0 m/s | - | - |
| 1777565755 | 11.11° C | 99% | 1008.4 hPa | 0 mm | 0 m/s | - | - |
| 1777564856 | 11.67° C | 99% | 1008.6 hPa | 0 mm | 0 m/s | - | - |
| 1777563996 | 11.11° C | 99% | 1008.7 hPa | 0 mm | 0.45 m/s, 146° | - | - |
| 1777563954 | 11.11° C | 99% | 1008.7 hPa | 0 mm | 0.45 m/s, 146° | - | - |
| 1777563055 | 10.56° C | 100% | 1008.7 hPa | 0 mm | 0.45 m/s, 129° | - | - |
| 1777562155 | 10.56° C | 99% | 1008.8 hPa | 0 mm | 0 m/s | - | - |
| 1777561255 | 10.56° C | 99% | 1008.8 hPa | 0 mm | 0 m/s | - | - |
| 1777560355 | 10.56° C | 99% | 1008.7 hPa | 0 mm | 0 m/s | - | - |
| 1777559455 | 10.56° C | 99% | 1008.6 hPa | 0 mm | 0 m/s | - | - |
| 1777558555 | 10° C | 100% | 1008.5 hPa | 0 mm | 0.45 m/s, 77° | - | - |
| 1777557655 | 10° C | 99% | 1008.7 hPa | 0 mm | 0 m/s | - | - |
| 1777556754 | 9.44° C | 99% | 1008.7 hPa | 0.25 mm | 0 m/s | - | - |
| 1777555855 | 9.44° C | 99% | 1008.6 hPa | 0 mm | 0 m/s | - | - |
| 1777554955 | 9.44° C | 99% | 1008.5 hPa | 0.51 mm | 0 m/s | - | - |
| 1777554056 | 9.44° C | 99% | 1008.4 hPa | 1.27 mm | 0.45 m/s, 81° | - | - |
| 1777553155 | 8.89° C | 99% | 1008.8 hPa | 0 mm | 0 m/s | - | - |
| 1777552256 | 8.89° C | 99% | 1008.9 hPa | 0 mm | 0 m/s | - | - |
| 1777551445 | 8.89° C | 99% | 1009 hPa | 0 mm | 0 m/s | - | - |
* Rain latest hour (hover to see other rain measurements)
** Current wind speed in m/s (hover to see current wind gust speed)